ADDS METAR Data INFO
IDs: Format: Raw Decoded Include TAF

Data at: 1151 UTC 21 Jun 2018

KFSM 210953Z AUTO 00000KT 10SM CLR 19/19 A2987 RMK AO2 SLP112 T01940189
KFSM 210853Z 00000KT 10SM CLR 20/19 A2986 RMK AO2 SLP108 T02000194 56008
KFSM 210753Z 00000KT 10SM CLR 20/19 A2987 RMK AO2 SLP109 T02000194
KFSM 210653Z 00000KT 10SM CLR 21/20 A2986 RMK AO2 SLP108 T02060200
KFSM 210553Z 00000KT 10SM CLR 21/20 A2988 RMK AO2 SLP116 60007 T02110200 10244 20206 402560206 50006
KFSM 210453Z 00000KT 10SM CLR 21/20 A2989 RMK AO2 SLP118 T02110200
KFSM 210353Z 25005KT 10SM CLR 22/21 A2988 RMK AO2 SLP113 T02220211
KFSM 210253Z 00000KT 10SM CLR 22/21 A2987 RMK AO2 RAE0154 SLP109 P0000 60007 T02220206 53003
KFSM 210215Z 19003KT 10SM FEW015 23/22 A2986 RMK AO2 RAE0154 P0000 T02280217
KFSM 210203Z VRB03KT 10SM SCT009 BKN016 23/22 A2986 RMK AO2 RAE0154 P0000 T02330222
KFSM 210153Z 02003KT 10SM -RA BKN010 BKN016 OVC023 23/22 A2987 RMK AO2 RAB0055 SLP109 P0007 T02330222
KFSM 210119Z 35005KT 7SM -RA BKN013 OVC021 24/23 A2986 RMK AO2 RAB0055 P0002 T02390228
KFSM 210107Z 05004KT 10SM -RA FEW014 BKN020 BKN047 24/23 A2985 RMK AO2 RAB0055 P0001 T02390228
KFSM 210053Z 27003KT 10SM FEW023 SCT050 BKN075 24/22 A2985 RMK AO2 RAB20E50 SLP103 P0000 T02390222
KFSM 202353Z AUTO 10005KT 10SM SCT026 SCT120 24/22 A2986 RMK AO2 LTG DSNT SW SLP105 60000 T02440217 10250 20233 56008
KFSM 202253Z 16004KT 10SM OVC025 24/21 A2986 RMK AO2 SLP108 T02440211
KFSM 202240Z 16005KT 10SM FEW012 BKN028 OVC032 24/21 A2986 RMK AO2 T02440211
KFSM 202214Z 13005KT 10SM SCT012 OVC037 24/22 A2987 RMK AO2 T02440217
KFSM 202153Z 11009KT 10SM BKN012 OVC039 24/22 A2987 RMK AO2 RAE04 SLP109 P0000 T02440222
KFSM 202136Z 12005KT 10SM BKN012 OVC037 24/22 A2987 RMK AO2 RAE04 P0000 T02440222
KFSM 202053Z 13009KT 10SM -RA SCT008 OVC049 24/22 A2988 RMK AO2 RAE02B53 SLP113 P0000 60000 T02440222 58015
KFSM 202001Z 09007KT 9SM -RA SCT008 BKN038 OVC046 24/23 A2989 RMK AO2 LTG DSNT S AND SW P0000 T02390228
KFSM 201953Z 09005KT 9SM -RA BKN007 OVC037 23/22 A2990 RMK AO2 LTG DSNT S AND SW RAE03B41 SLP119 P0000 T02330222
KFSM 201933Z 06005KT 10SM BKN007 OVC028 24/22 A2990 RMK AO2 RAE03 P0000 T02390222
KFSM 201920Z 05006KT 10SM SCT007 OVC027 23/22 A2990 RMK AO2 LTG DSNT S RAE03 P0000 T02330222
KFSM 201853Z 05007KT 10SM -RA BKN007 OVC024 24/22 A2991 RMK AO2 LTG DSNT S RAB11 SLP122 P0000 T02390222
KFSM 201801Z 36004KT 10SM BKN005 BKN070 OVC085 23/22 A2993 RMK AO2 T02330222
KFSM 201753Z 36005KT 10SM SCT005 BKN070 OVC085 23/22 A2992 RMK AO2 RAE41 SLP128 P0009 60087 T02330222 10250 20222 58006
KFSM 201728Z 02004KT 6SM -RA BR FEW020 BKN070 OVC085 23/22 A2993 RMK AO2 P0009 T02280217
KFSM 201718Z 00000KT 2SM RA BR FEW018 BKN041 OVC080 23/22 A2993 RMK AO2 P0008 T02280217
KFSM 201703Z 00000KT 1 3/4SM R25/5500VP6000FT RA BR SCT042 BKN070 OVC085 22/22 A2993 RMK AO2 P0001 T02220217
KFSM 201653Z 00000KT 4SM RA BR FEW050 SCT065 OVC085 22/22 A2993 RMK AO2 SLP130 P0006 T02220217
KFSM 201553Z 28005KT 6SM -RA BR OVC055 23/21 A2994 RMK AO2 SLP134 P0022 T02280211
KFSM 201542Z 00000KT 3SM R25/5500VP6000FT -RA BR BKN047 OVC060 23/21 A2994 RMK AO2 P0021 T02280206
KFSM 201536Z VRB04KT 1 3/4SM R25/5500VP6000FT +RA BR BKN043 OVC055 22/22 A2994 RMK AO2 P0020 T02220217
KFSM 201528Z 26004KT 3SM RA BR BKN047 OVC055 22/22 A2994 RMK AO2 P0017 T02220217
KFSM 201513Z 19004KT 1 3/4SM R25/4500VP6000FT +RA BR BKN036 BKN045 OVC055 22/22 A2994 RMK AO2 P0010 T02220217
KFSM 201504Z 19005KT 3SM -RA BR BKN038 BKN047 OVC060 22/21 A2994 RMK AO2 P0007 T02220211
KFSM 201453Z 18007KT 1SM R25/5000VP6000FT +RA BR BKN030 BKN038 OVC049 22/21 A2994 RMK AO2 RAB08 SLP134 P0050 60050 T02220211 53006
KFSM 201439Z 19009KT 1 3/4SM RA BR FEW007 BKN028 OVC038 23/22 A2994 RMK AO2 RAB08 P0036 T02280217
KFSM 201427Z AUTO 19011KT 1/2SM R25/2800VP6000FT +RA FG FEW007 BKN017 OVC025 23/22 A2995 RMK AO2 RAB08 P0022 T02280222
KFSM 201421Z AUTO 20011KT 1SM R25/4000VP6000FT +RA BR SCT007 BKN013 OVC025 23/22 A2995 RMK AO2 RAB08 P0003 T02330222
KFSM 201419Z AUTO 19011KT 1 1/2SM R25/5000VP6000FT +RA BR SCT010 SCT015 OVC025 23/22 A2994 RMK AO2 RAB08 P0001 T02330222
KFSM 201403Z AUTO 14006KT 10SM FEW023 BKN028 OVC038 24/22 A2993 RMK AO2 T02440217
KFSM 201353Z AUTO 13004KT 9SM SCT030 BKN038 OVC065 25/22 A2993 RMK AO2 RAB35E41 SLP129 P0000 T02500217
KFSM 201253Z AUTO 07004KT 10SM OVC032 24/21 A2993 RMK AO2 SLP130 T02440211
KFSM 201153Z AUTO 08003KT 10SM FEW040 BKN047 OVC055 24/21 A2992 RMK AO2 SLP127 T02390211 10256 20233 51006
KFSM 201053Z AUTO 03003KT 10SM BKN100 24/21 A2992 RMK AO2 SLP127 T02390206
KFSM 200953Z AUTO 03003KT 10SM CLR 24/21 A2992 RMK AO2 SLP126 T02390206
KFSM 200853Z AUTO 11004KT 10SM CLR 24/20 A2991 RMK AO2 SLP120 T02390200 57007
KFSM 200753Z AUTO 13004KT 10SM CLR 24/19 A2991 RMK AO2 SLP121 T02440194
KFSM 200653Z AUTO 07003KT 10SM CLR 24/19 A2992 RMK AO2 SLP126 T02440194
KFSM 200553Z AUTO 15004KT 10SM CLR 26/19 A2993 RMK AO2 SLP127 T02560194 10317 20250 403220228 50002
KFSM 200453Z AUTO 00000KT 10SM CLR 26/19 A2993 RMK AO2 SLP130 T02560194
KFSM 200353Z AUTO 15006KT 10SM CLR 27/19 A2993 RMK AO2 SLP128 T02670194
KFSM 200253Z AUTO 14004KT 10SM CLR 27/19 A2992 RMK AO2 SLP125 T02720194 55001
KFSM 200153Z AUTO 13003KT 10SM BKN090 29/19 A2990 RMK AO2 SLP119 T02890194
KFSM 200053Z AUTO 15008KT 10SM OVC065 30/19 A2992 RMK AO2 SLP126 T03000189
KFSM 192353Z AUTO 09006KT 10SM SCT055 BKN085 32/19 A2992 RMK AO2 SLP126 T03170189 10322 20283 58010